createdAt,value
2022-10-23T00:00:06.776Z,1.60
2022-10-23T00:02:35.175Z,1.58
2022-10-23T00:05:03.508Z,1.73
2022-10-23T00:07:34.882Z,1.33
2022-10-23T00:10:03.357Z,1.35
2022-10-23T00:12:31.816Z,1.20
2022-10-23T00:15:00.310Z,1.33
2022-10-23T00:17:33.003Z,1.73
2022-10-23T00:20:25.040Z,1.10
2022-10-23T00:23:06.401Z,3.05
2022-10-23T00:26:43.445Z,1.80
2022-10-23T00:29:27.264Z,1.38
2022-10-23T00:32:05.086Z,1.52
2022-10-23T00:38:32.176Z,2.28
2022-10-23T00:45:43.339Z,1.40
2022-10-23T00:48:36.719Z,1.08
2022-10-23T00:51:31.308Z,1.30
2022-10-23T00:54:58.238Z,2.67
2022-10-23T01:00:34.411Z,1.65
2022-10-23T01:06:07.904Z,1.85
2022-10-23T01:08:58.076Z,2.58
2022-10-23T01:14:22.717Z,5.60
2022-10-23T01:20:18.751Z,16.35
2022-10-23T01:23:31.445Z,1.80
2022-10-23T01:26:38.643Z,1.80
2022-10-23T01:29:21.640Z,1.50
2022-10-23T01:32:31.289Z,1.75
2022-10-23T01:35:31.864Z,3.90
2022-10-23T01:38:22.053Z,1.85
2022-10-23T01:41:34.851Z,2.25
2022-10-23T01:47:56.128Z,2.22
2022-10-23T01:50:27.609Z,2.65
2022-10-23T01:52:57.847Z,3.13
2022-10-23T01:58:29.462Z,1.95
2022-10-23T02:01:14.028Z,2.15
2022-10-23T02:04:04.688Z,2.65
2022-10-23T02:06:38.418Z,2.95
2022-10-23T02:12:24.006Z,2.40
2022-10-23T02:15:15.312Z,2.13
2022-10-23T02:18:00.926Z,2.17
2022-10-23T02:20:42.100Z,2.40
2022-10-23T02:23:24.079Z,2.78
2022-10-23T02:26:02.055Z,2.20
2022-10-23T02:28:49.909Z,1.65
2022-10-23T02:31:25.985Z,2.10
2022-10-23T02:34:02.711Z,2.15
2022-10-23T02:36:54.396Z,1.80
2022-10-23T02:39:34.698Z,2.00
2022-10-23T02:45:09.627Z,1.88
2022-10-23T02:47:54.562Z,2.85
2022-10-23T02:50:30.905Z,6.63
2022-10-23T02:53:16.552Z,2.40
2022-10-23T02:55:54.393Z,3.33
2022-10-23T02:58:28.847Z,1.70
2022-10-23T03:01:04.997Z,1.80
2022-10-23T03:03:37.458Z,1.70
2022-10-23T03:06:06.089Z,2.25
2022-10-23T03:08:45.316Z,1.88
2022-10-23T03:11:19.512Z,1.70
2022-10-23T03:13:51.171Z,1.50
2022-10-23T03:16:20.976Z,2.22
2022-10-23T03:18:52.328Z,8.48
2022-10-23T03:21:27.840Z,1.75
2022-10-23T03:23:57.964Z,1.88
2022-10-23T03:26:35.086Z,1.50
2022-10-23T03:29:03.397Z,2.28
2022-10-23T03:31:32.122Z,2.53
2022-10-23T03:34:07.504Z,2.10
2022-10-23T03:36:39.317Z,1.88
2022-10-23T03:39:10.004Z,2.63
2022-10-23T03:41:38.809Z,1.92
2022-10-23T03:44:12.695Z,1.95
2022-10-23T03:46:44.132Z,1.95
2022-10-23T03:49:15.844Z,4.53
2022-10-23T03:51:55.254Z,2.28
2022-10-23T03:54:33.561Z,1.45
2022-10-23T03:57:05.439Z,2.78
2022-10-23T03:59:35.928Z,3.28
2022-10-23T04:02:12.842Z,2.30
2022-10-23T04:05:10.305Z,2.25
2022-10-23T04:07:39.236Z,1.95
2022-10-23T04:10:12.744Z,2.17
2022-10-23T04:12:43.369Z,3.20
2022-10-23T04:15:12.357Z,2.70
2022-10-23T04:17:48.127Z,2.03
2022-10-23T04:20:17.513Z,2.53
2022-10-23T04:22:49.085Z,3.10
2022-10-23T04:25:19.247Z,2.60
2022-10-23T04:27:53.591Z,2.15
2022-10-23T04:30:26.043Z,2.40
2022-10-23T04:32:55.307Z,2.90
2022-10-23T04:35:23.966Z,2.22
2022-10-23T04:37:54.851Z,2.80
2022-10-23T04:40:25.371Z,2.80
2022-10-23T04:42:53.982Z,2.80
2022-10-23T04:45:22.436Z,2.50
2022-10-23T04:47:50.845Z,3.45
2022-10-23T04:50:19.673Z,2.55
2022-10-23T04:52:51.237Z,3.72
2022-10-23T04:55:19.940Z,2.50
2022-10-23T04:57:50.514Z,3.05
2022-10-23T05:00:23.617Z,2.47
2022-10-23T05:02:52.506Z,2.80
2022-10-23T05:05:21.613Z,2.83
2022-10-23T05:07:58.355Z,2.33
2022-10-23T05:10:57.770Z,2.83
2022-10-23T05:13:48.051Z,2.60
2022-10-23T05:16:34.922Z,2.90
2022-10-23T05:19:04.876Z,2.60
2022-10-23T05:21:40.012Z,3.05
2022-10-23T05:24:09.409Z,2.50
2022-10-23T05:26:41.364Z,3.05
2022-10-23T05:29:11.734Z,4.15
2022-10-23T05:31:59.569Z,4.18
2022-10-23T05:34:33.243Z,5.00
2022-10-23T05:37:02.444Z,4.43
2022-10-23T05:39:31.267Z,6.22
2022-10-23T05:42:02.694Z,7.93
2022-10-23T05:44:33.246Z,3.63
2022-10-23T05:47:08.990Z,5.88
2022-10-23T05:49:38.254Z,3.60
2022-10-23T05:52:07.472Z,3.20
2022-10-23T05:54:36.247Z,4.10
2022-10-23T05:57:09.112Z,3.20
2022-10-23T05:59:47.544Z,5.63
2022-10-23T06:02:26.807Z,6.47
2022-10-23T06:04:58.466Z,8.43
2022-10-23T06:07:29.222Z,7.40
2022-10-23T06:10:02.879Z,6.15
2022-10-23T06:12:33.494Z,8.95
2022-10-23T06:15:03.970Z,10.05
2022-10-23T06:17:32.745Z,12.63
2022-10-23T06:20:07.910Z,12.07
2022-10-23T06:22:39.765Z,9.68
2022-10-23T06:25:09.906Z,11.43
2022-10-23T06:27:38.888Z,11.63
2022-10-23T06:30:14.088Z,13.70
2022-10-23T06:32:51.561Z,10.75
2022-10-23T06:35:23.383Z,12.60
2022-10-23T06:37:51.978Z,12.27
2022-10-23T06:40:23.510Z,12.02
2022-10-23T06:42:55.063Z,12.18
2022-10-23T06:45:25.564Z,13.30
2022-10-23T06:47:56.706Z,11.98
2022-10-23T06:50:31.101Z,11.20
2022-10-23T06:53:02.534Z,13.18
2022-10-23T06:55:31.953Z,11.45
2022-10-23T06:58:01.088Z,10.38
2022-10-23T07:00:31.362Z,8.63
2022-10-23T07:03:00.254Z,8.30
2022-10-23T07:05:29.337Z,6.25
2022-10-23T07:07:57.493Z,8.10
2022-10-23T07:10:29.274Z,7.97
2022-10-23T07:13:01.361Z,7.30
2022-10-23T07:15:32.572Z,6.75
2022-10-23T07:18:15.871Z,7.13
2022-10-23T07:20:54.904Z,7.95
2022-10-23T07:23:30.943Z,8.57
2022-10-23T07:26:11.854Z,7.32
2022-10-23T07:28:50.898Z,6.35
2022-10-23T07:31:24.345Z,7.78
2022-10-23T07:33:55.751Z,7.65
2022-10-23T07:36:24.569Z,7.22
2022-10-23T07:38:52.884Z,6.88
2022-10-23T07:41:26.336Z,6.05
2022-10-23T07:43:55.277Z,25.98
2022-10-23T07:46:25.549Z,5.53
2022-10-23T07:48:54.265Z,6.05
2022-10-23T07:51:25.353Z,5.28
2022-10-23T07:53:53.835Z,5.60
2022-10-23T07:56:26.195Z,5.70
2022-10-23T07:58:55.244Z,5.05
2022-10-23T08:01:33.273Z,4.90
2022-10-23T08:04:11.774Z,4.75
2022-10-23T08:06:40.651Z,4.47
2022-10-23T08:09:09.434Z,4.07
2022-10-23T08:11:46.910Z,4.55
2022-10-23T08:14:15.293Z,5.45
2022-10-23T08:16:45.563Z,3.80
2022-10-23T08:19:14.251Z,3.85
2022-10-23T08:21:46.012Z,3.53
2022-10-23T08:24:14.754Z,4.57
2022-10-23T08:26:43.407Z,4.13
2022-10-23T08:29:11.940Z,3.65
2022-10-23T08:31:40.414Z,6.85
2022-10-23T08:34:10.700Z,4.57
2022-10-23T08:36:43.449Z,5.13
2022-10-23T08:39:15.313Z,3.92
2022-10-23T08:41:49.038Z,3.75
2022-10-23T08:44:24.361Z,4.22
2022-10-23T08:47:06.726Z,5.05
2022-10-23T08:49:46.790Z,4.00
2022-10-23T08:52:20.918Z,3.95
2022-10-23T08:55:05.900Z,3.63
2022-10-23T08:57:41.446Z,3.72
2022-10-23T09:00:16.356Z,4.60
2022-10-23T09:02:47.068Z,4.30
2022-10-23T09:05:21.126Z,3.83
2022-10-23T09:08:09.056Z,4.82
2022-10-23T09:11:03.318Z,6.35
2022-10-23T09:14:21.886Z,4.63
2022-10-23T09:17:02.221Z,4.95
2022-10-23T09:19:32.218Z,4.85
2022-10-23T09:22:02.361Z,4.85
2022-10-23T09:24:31.928Z,7.53
2022-10-23T09:27:01.089Z,5.38
2022-10-23T09:29:32.037Z,5.20
2022-10-23T09:32:01.835Z,8.25
2022-10-23T09:34:32.141Z,8.50
2022-10-23T09:37:04.030Z,6.60
2022-10-23T09:39:34.903Z,7.28
2022-10-23T09:42:22.123Z,11.60
2022-10-23T09:44:52.150Z,8.82
2022-10-23T09:47:22.737Z,10.25
2022-10-23T09:49:53.130Z,12.10
2022-10-23T09:52:30.347Z,11.95
2022-10-23T09:55:01.466Z,12.38
2022-10-23T09:57:33.303Z,13.10
2022-10-23T10:00:03.964Z,11.45
2022-10-23T10:02:35.230Z,11.73
2022-10-23T10:05:24.750Z,12.52
2022-10-23T10:08:04.043Z,12.05
2022-10-23T10:10:37.441Z,13.07
2022-10-23T10:13:19.549Z,11.35
2022-10-23T10:15:53.065Z,13.88
2022-10-23T10:18:29.996Z,12.02
2022-10-23T10:21:07.548Z,10.52
2022-10-23T10:23:46.640Z,12.32
2022-10-23T10:26:25.595Z,11.88
2022-10-23T10:29:06.999Z,11.75
2022-10-23T10:31:49.335Z,11.73
2022-10-23T10:34:26.669Z,11.52
2022-10-23T10:36:57.473Z,16.27
2022-10-23T10:39:38.012Z,11.52
2022-10-23T10:42:28.703Z,15.30
2022-10-23T10:45:09.388Z,12.65
2022-10-23T10:47:50.648Z,11.23
2022-10-23T10:50:23.790Z,11.70
2022-10-23T10:53:02.144Z,11.93
2022-10-23T10:55:37.195Z,9.85
2022-10-23T10:58:13.808Z,9.45
2022-10-23T11:00:42.339Z,9.70
2022-10-23T11:03:23.730Z,9.32
2022-10-23T11:05:54.724Z,8.25
2022-10-23T11:08:40.192Z,8.07
2022-10-23T11:11:25.608Z,3.97
2022-10-23T11:13:54.553Z,3.47
2022-10-23T11:16:30.030Z,3.45
2022-10-23T11:19:09.848Z,2.95
2022-10-23T11:21:46.162Z,3.70
2022-10-23T11:24:50.766Z,3.17
2022-10-23T11:27:32.704Z,3.13
2022-10-23T11:30:32.208Z,3.45
2022-10-23T11:33:41.405Z,2.90
2022-10-23T11:36:17.576Z,4.60
2022-10-23T11:38:51.437Z,2.85
2022-10-23T11:41:27.043Z,2.90
2022-10-23T11:44:01.802Z,2.70
2022-10-23T11:46:36.050Z,4.35
2022-10-23T11:49:06.466Z,3.05
2022-10-23T11:51:36.818Z,3.80
2022-10-23T11:54:27.517Z,2.70
2022-10-23T11:57:12.425Z,3.67
2022-10-23T11:59:56.805Z,2.45
2022-10-23T12:02:32.484Z,3.03
2022-10-23T12:05:05.565Z,3.13
2022-10-23T12:07:37.128Z,3.65
2022-10-23T12:10:08.301Z,3.00
2022-10-23T12:12:41.121Z,2.90
2022-10-23T12:15:21.613Z,3.30
2022-10-23T12:17:51.649Z,3.05
2022-10-23T12:20:39.797Z,3.83
2022-10-23T12:23:26.040Z,3.65
2022-10-23T12:26:12.836Z,4.15
2022-10-23T12:28:48.709Z,2.95
2022-10-23T12:31:31.792Z,2.83
2022-10-23T12:34:11.717Z,3.05
2022-10-23T12:36:48.894Z,3.45
2022-10-23T12:39:33.649Z,3.40
2022-10-23T12:42:05.378Z,4.43
2022-10-23T12:44:34.260Z,3.60
2022-10-23T12:47:05.496Z,4.25
2022-10-23T12:49:35.942Z,3.63
2022-10-23T12:52:06.935Z,3.83
2022-10-23T12:54:45.101Z,3.85
2022-10-23T12:57:26.120Z,5.68
2022-10-23T13:00:02.643Z,8.20
2022-10-23T13:02:35.792Z,5.45
2022-10-23T13:05:07.301Z,4.95
2022-10-23T13:07:38.747Z,5.00
2022-10-23T13:13:27.919Z,5.40
2022-10-23T13:15:58.175Z,6.43
2022-10-23T13:18:41.294Z,5.43
2022-10-23T13:21:20.487Z,5.25
2022-10-23T13:29:10.697Z,5.53
2022-10-23T13:30:42.556Z,5.40
2022-10-23T13:33:27.244Z,5.82
2022-10-23T13:36:11.439Z,5.60
2022-10-23T13:38:44.290Z,5.78
2022-10-23T13:41:16.394Z,6.15
2022-10-23T13:43:46.075Z,5.53
2022-10-23T13:46:16.468Z,5.47
2022-10-23T13:48:50.652Z,4.22
2022-10-23T13:51:23.666Z,4.40
2022-10-23T13:53:55.381Z,4.32
2022-10-23T13:56:45.590Z,5.57
2022-10-23T13:59:17.949Z,4.80
2022-10-23T14:01:51.102Z,5.55
2022-10-23T14:04:24.418Z,5.45
2022-10-23T14:06:58.718Z,4.53
2022-10-23T14:09:34.752Z,4.43
2022-10-23T14:12:15.234Z,5.25
2022-10-23T14:14:50.619Z,5.00
2022-10-23T14:17:29.873Z,4.10
2022-10-23T14:20:06.628Z,6.68
2022-10-23T14:22:54.276Z,5.70
2022-10-23T14:25:40.848Z,5.70
2022-10-23T14:28:15.526Z,5.15
2022-10-23T14:30:46.929Z,7.10
2022-10-23T14:38:55.790Z,6.88
2022-10-23T14:41:37.583Z,8.23
2022-10-23T14:44:41.975Z,11.18
2022-10-23T14:50:18.932Z,8.02
2022-10-23T14:53:04.718Z,8.80
2022-10-23T14:58:41.061Z,10.00
2022-10-23T15:01:10.696Z,10.77
2022-10-23T15:04:03.358Z,11.45
2022-10-23T15:06:58.875Z,13.00
2022-10-23T15:12:51.487Z,13.52
2022-10-23T15:15:51.367Z,14.00
2022-10-23T15:21:58.436Z,20.25
2022-10-23T15:24:39.396Z,19.02
2022-10-23T15:27:17.073Z,17.85
2022-10-23T15:29:55.720Z,19.38
2022-10-23T15:32:53.220Z,17.15
2022-10-23T15:35:33.690Z,19.25
2022-10-23T15:38:12.375Z,19.33
2022-10-23T15:40:50.204Z,20.25
2022-10-23T15:43:43.097Z,19.80
2022-10-23T15:46:31.300Z,21.38
2022-10-23T15:49:00.619Z,26.98
2022-10-23T15:51:36.039Z,18.77
2022-10-23T15:54:07.560Z,18.65
2022-10-23T15:56:51.648Z,21.00
2022-10-23T15:59:29.235Z,19.58
2022-10-23T16:02:05.286Z,20.45
2022-10-23T16:04:46.862Z,21.40
2022-10-23T16:07:30.294Z,20.17
2022-10-23T16:10:02.482Z,23.58
2022-10-23T16:12:34.883Z,22.63
2022-10-23T16:15:08.123Z,23.35
2022-10-23T16:17:38.277Z,22.95
2022-10-23T16:20:19.669Z,22.83
2022-10-23T16:22:50.017Z,29.17
2022-10-23T16:25:19.268Z,25.70
2022-10-23T16:28:03.083Z,29.27
2022-10-23T16:30:58.717Z,30.33
2022-10-23T16:33:34.880Z,26.60
2022-10-23T16:36:34.342Z,30.13
2022-10-23T16:39:12.817Z,26.13
2022-10-23T16:41:45.720Z,26.48
2022-10-23T16:44:36.630Z,30.10
2022-10-23T16:47:12.623Z,27.92
2022-10-23T16:49:49.231Z,29.13
2022-10-23T16:52:25.521Z,27.95
2022-10-23T16:57:40.060Z,25.92
2022-10-23T17:00:25.877Z,31.92
2022-10-23T17:02:54.952Z,28.20
2022-10-23T17:05:28.216Z,28.30
2022-10-23T17:07:56.452Z,26.27
2022-10-23T17:10:25.023Z,31.92
2022-10-23T17:12:53.334Z,33.17
2022-10-23T17:15:23.957Z,33.03
2022-10-23T17:17:52.359Z,34.22
2022-10-23T17:20:20.963Z,28.48
2022-10-23T17:22:50.737Z,31.15
2022-10-23T17:25:19.310Z,36.58
2022-10-23T17:27:51.041Z,29.48
2022-10-23T17:30:19.730Z,33.30
2022-10-23T17:32:48.097Z,36.47
2022-10-23T17:35:16.606Z,27.83
2022-10-23T17:38:09.219Z,25.77
2022-10-23T17:43:24.029Z,23.10
2022-10-23T17:45:57.742Z,27.73
2022-10-23T17:48:29.139Z,28.98
2022-10-23T17:51:06.590Z,23.30
2022-10-23T17:53:41.523Z,24.52
2022-10-23T17:56:12.567Z,23.40
2022-10-23T17:58:42.030Z,25.83
2022-10-23T18:01:13.434Z,23.15
2022-10-23T18:03:42.600Z,27.63
2022-10-23T18:06:25.822Z,24.80
2022-10-23T18:08:59.929Z,23.30
2022-10-23T18:11:31.315Z,27.98
2022-10-23T18:14:01.736Z,22.85
2022-10-23T18:16:32.662Z,25.45
2022-10-23T18:19:04.772Z,22.90
2022-10-23T18:21:35.087Z,23.55
2022-10-23T18:24:13.416Z,25.33
2022-10-23T18:26:46.432Z,24.60
2022-10-23T18:29:17.685Z,21.95
2022-10-23T18:31:48.507Z,24.38
2022-10-23T18:34:31.741Z,26.58
2022-10-23T18:37:01.354Z,24.10
2022-10-23T18:39:32.201Z,20.77
2022-10-23T18:42:03.348Z,24.10
2022-10-23T18:44:37.390Z,23.02
2022-10-23T18:47:06.859Z,21.83
2022-10-23T18:49:37.871Z,21.35
2022-10-23T18:52:08.947Z,26.20
2022-10-23T18:54:45.292Z,22.40
2022-10-23T18:57:16.962Z,20.58
2022-10-23T18:59:58.228Z,20.95
2022-10-23T19:02:40.952Z,18.83
2022-10-23T19:05:13.371Z,19.40
2022-10-23T19:07:47.453Z,19.17
2022-10-23T19:10:29.337Z,19.63
2022-10-23T19:12:58.296Z,21.15
2022-10-23T19:15:27.675Z,18.35
2022-10-23T19:18:05.304Z,26.05
2022-10-23T19:20:46.511Z,21.40
2022-10-23T19:23:32.293Z,22.02
2022-10-23T19:26:19.035Z,23.33
2022-10-23T19:28:49.443Z,21.40
2022-10-23T19:32:09.673Z,21.77
2022-10-23T19:37:50.641Z,22.38
2022-10-23T19:40:18.904Z,21.92
2022-10-23T19:42:51.056Z,20.40
2022-10-23T19:45:19.621Z,21.48
2022-10-23T19:47:48.568Z,20.63
2022-10-23T19:50:20.402Z,21.90
2022-10-23T19:52:48.938Z,19.17
2022-10-23T19:55:17.218Z,20.27
2022-10-23T19:57:45.868Z,19.20
2022-10-23T20:00:17.058Z,22.60
2022-10-23T20:03:16.570Z,20.55
2022-10-23T20:06:06.668Z,18.10
2022-10-23T20:08:44.581Z,20.65
2022-10-23T20:11:24.800Z,21.00
2022-10-23T20:14:05.031Z,23.15
2022-10-23T20:16:40.183Z,21.17
2022-10-23T20:19:11.953Z,24.83
2022-10-23T20:21:42.696Z,20.73
2022-10-23T20:24:13.576Z,26.35
2022-10-23T20:26:42.733Z,21.63
2022-10-23T20:29:11.748Z,22.38
2022-10-23T20:31:43.370Z,21.42
2022-10-23T20:34:15.495Z,22.63
2022-10-23T20:36:48.507Z,22.83
2022-10-23T20:39:29.867Z,23.25
2022-10-23T20:42:00.395Z,40.30
2022-10-23T20:44:32.591Z,21.70
2022-10-23T20:47:02.705Z,21.88
2022-10-23T20:49:31.189Z,28.15
2022-10-23T20:52:03.977Z,28.00
2022-10-23T20:54:33.044Z,24.20
2022-10-23T20:57:01.429Z,24.08
2022-10-23T20:59:45.190Z,21.77
2022-10-23T21:02:16.246Z,22.98
2022-10-23T21:05:04.309Z,23.15
2022-10-23T21:07:34.622Z,25.60
2022-10-23T21:10:18.340Z,22.92
2022-10-23T21:13:02.933Z,27.48
2022-10-23T21:15:31.285Z,24.60
2022-10-23T21:18:26.502Z,27.05
2022-10-23T21:21:22.953Z,25.02
2022-10-23T21:24:41.551Z,23.35
2022-10-23T21:27:42.207Z,22.10
2022-10-23T21:30:17.856Z,23.90
2022-10-23T21:33:34.245Z,29.65
2022-10-23T21:36:13.979Z,31.30
2022-10-23T21:38:43.508Z,24.48
2022-10-23T21:41:23.099Z,24.65
2022-10-23T21:44:19.213Z,24.95
2022-10-23T21:46:53.145Z,23.75
2022-10-23T21:49:23.068Z,29.92
2022-10-23T21:51:59.648Z,27.73
2022-10-23T21:54:28.018Z,25.67
2022-10-23T21:56:56.347Z,27.27
2022-10-23T21:59:40.694Z,26.02
2022-10-23T22:02:09.509Z,26.77
2022-10-23T22:04:39.514Z,25.80
2022-10-23T22:07:44.889Z,25.90
2022-10-23T22:11:08.959Z,27.83
2022-10-23T22:20:43.140Z,25.30
2022-10-23T22:23:50.526Z,24.40
2022-10-23T22:26:50.348Z,25.10
2022-10-23T22:29:46.882Z,23.92
2022-10-23T22:32:24.747Z,24.27
2022-10-23T22:35:15.069Z,26.05
2022-10-23T22:37:51.133Z,23.52
2022-10-23T22:40:32.211Z,25.13
2022-10-23T22:43:04.284Z,27.40
2022-10-23T22:45:41.681Z,27.92
2022-10-23T22:48:13.656Z,26.73
2022-10-23T22:50:47.052Z,27.42
2022-10-23T22:53:19.202Z,27.58
2022-10-23T22:56:11.730Z,28.27
2022-10-23T22:58:52.856Z,29.17
2022-10-23T23:01:24.258Z,28.75
2022-10-23T23:04:19.642Z,32.70
2022-10-23T23:06:57.705Z,27.13
2022-10-23T23:09:39.401Z,25.63
2022-10-23T23:12:16.625Z,26.83
2022-10-23T23:14:51.616Z,27.83
2022-10-23T23:17:31.832Z,26.50
2022-10-23T23:20:37.819Z,27.63
2022-10-23T23:23:22.415Z,29.15
2022-10-23T23:25:58.659Z,24.33
2022-10-23T23:28:29.944Z,24.85
2022-10-23T23:31:19.061Z,22.02
2022-10-23T23:33:56.462Z,19.40
2022-10-23T23:36:42.319Z,22.92
2022-10-23T23:39:20.093Z,23.65
2022-10-23T23:42:36.425Z,22.30
2022-10-23T23:48:21.637Z,19.90
2022-10-23T23:50:52.738Z,22.42
2022-10-23T23:53:28.591Z,19.73
2022-10-23T23:58:51.519Z,18.63
